sensor_id;sensor_type;location;lat;lon;timestamp;pressure;altitude;pressure_sealevel;temperature
68939;BMP180;59064;45.294;11.816;2022-10-31T00:00:22;101968.00;;;14.40
68939;BMP180;59064;45.294;11.816;2022-10-31T00:02:47;101968.40;;;14.40
68939;BMP180;59064;45.294;11.816;2022-10-31T00:05:14;101968.20;;;14.40
68939;BMP180;59064;45.294;11.816;2022-10-31T00:07:39;101965.40;;;14.40
68939;BMP180;59064;45.294;11.816;2022-10-31T00:10:06;101968.80;;;14.32
68939;BMP180;59064;45.294;11.816;2022-10-31T00:12:31;101972.20;;;14.30
68939;BMP180;59064;45.294;11.816;2022-10-31T00:14:57;101968.80;;;14.24
68939;BMP180;59064;45.294;11.816;2022-10-31T00:17:22;101967.80;;;14.20
68939;BMP180;59064;45.294;11.816;2022-10-31T00:19:48;101968.60;;;14.10
68939;BMP180;59064;45.294;11.816;2022-10-31T00:22:13;101968.80;;;14.10
68939;BMP180;59064;45.294;11.816;2022-10-31T00:24:39;101966.80;;;14.00
68939;BMP180;59064;45.294;11.816;2022-10-31T00:27:04;101967.80;;;14.00
68939;BMP180;59064;45.294;11.816;2022-10-31T00:29:30;101968.00;;;13.90
68939;BMP180;59064;45.294;11.816;2022-10-31T00:31:55;101962.80;;;13.90
68939;BMP180;59064;45.294;11.816;2022-10-31T00:34:21;101968.80;;;13.80
68939;BMP180;59064;45.294;11.816;2022-10-31T00:36:46;101958.80;;;13.80
68939;BMP180;59064;45.294;11.816;2022-10-31T00:39:12;101960.00;;;13.80
68939;BMP180;59064;45.294;11.816;2022-10-31T00:41:37;101959.60;;;13.80
68939;BMP180;59064;45.294;11.816;2022-10-31T00:44:03;101958.80;;;13.80
68939;BMP180;59064;45.294;11.816;2022-10-31T00:46:28;101956.20;;;13.70
68939;BMP180;59064;45.294;11.816;2022-10-31T00:48:54;101957.60;;;13.70
68939;BMP180;59064;45.294;11.816;2022-10-31T00:51:19;101954.40;;;13.70
68939;BMP180;59064;45.294;11.816;2022-10-31T00:53:44;101956.20;;;13.60
68939;BMP180;59064;45.294;11.816;2022-10-31T00:56:10;101956.80;;;13.60
68939;BMP180;59064;45.294;11.816;2022-10-31T00:58:36;101958.80;;;13.60
68939;BMP180;59064;45.294;11.816;2022-10-31T01:01:02;101958.60;;;13.50
68939;BMP180;59064;45.294;11.816;2022-10-31T01:03:31;101956.60;;;13.50
68939;BMP180;59064;45.294;11.816;2022-10-31T01:08:22;101956.00;;;13.40
68939;BMP180;59064;45.294;11.816;2022-10-31T01:11:01;101954.80;;;13.40
68939;BMP180;59064;45.294;11.816;2022-10-31T01:13:27;101958.00;;;13.30
68939;BMP180;59064;45.294;11.816;2022-10-31T01:15:56;101951.20;;;13.30
68939;BMP180;59064;45.294;11.816;2022-10-31T01:18:22;101950.20;;;13.12
68939;BMP180;59064;45.294;11.816;2022-10-31T01:21:16;101952.40;;;13.06
68939;BMP180;59064;45.294;11.816;2022-10-31T01:23:42;101950.80;;;13.00
68939;BMP180;59064;45.294;11.816;2022-10-31T01:28:38;101951.60;;;12.90
68939;BMP180;59064;45.294;11.816;2022-10-31T01:31:08;101951.00;;;12.90
68939;BMP180;59064;45.294;11.816;2022-10-31T01:33:34;101951.20;;;12.90
68939;BMP180;59064;45.294;11.816;2022-10-31T01:36:01;101950.20;;;13.00
68939;BMP180;59064;45.294;11.816;2022-10-31T01:38:26;101952.80;;;13.10
68939;BMP180;59064;45.294;11.816;2022-10-31T01:40:52;101951.60;;;13.10
68939;BMP180;59064;45.294;11.816;2022-10-31T01:43:18;101945.00;;;13.10
68939;BMP180;59064;45.294;11.816;2022-10-31T01:45:50;101947.00;;;13.10
68939;BMP180;59064;45.294;11.816;2022-10-31T01:48:19;101942.00;;;13.10
68939;BMP180;59064;45.294;11.816;2022-10-31T01:50:48;101937.00;;;13.10
68939;BMP180;59064;45.294;11.816;2022-10-31T01:53:16;101935.80;;;12.94
68939;BMP180;59064;45.294;11.816;2022-10-31T01:55:44;101933.20;;;12.80
68939;BMP180;59064;45.294;11.816;2022-10-31T01:58:16;101935.60;;;12.70
68939;BMP180;59064;45.294;11.816;2022-10-31T02:00:45;101937.40;;;12.70
68939;BMP180;59064;45.294;11.816;2022-10-31T02:03:11;101939.80;;;12.60
68939;BMP180;59064;45.294;11.816;2022-10-31T02:05:38;101938.80;;;12.60
68939;BMP180;59064;45.294;11.816;2022-10-31T02:08:21;101937.80;;;12.60
68939;BMP180;59064;45.294;11.816;2022-10-31T02:10:46;101931.00;;;12.60
68939;BMP180;59064;45.294;11.816;2022-10-31T02:13:13;101929.60;;;12.60
68939;BMP180;59064;45.294;11.816;2022-10-31T02:15:40;101925.20;;;12.56
68939;BMP180;59064;45.294;11.816;2022-10-31T02:18:06;101926.40;;;12.50
68939;BMP180;59064;45.294;11.816;2022-10-31T02:28:51;101919.00;;;12.32
68939;BMP180;59064;45.294;11.816;2022-10-31T02:31:38;101918.60;;;12.30
68939;BMP180;59064;45.294;11.816;2022-10-31T02:34:19;101922.20;;;12.30
68939;BMP180;59064;45.294;11.816;2022-10-31T02:39:34;101923.80;;;12.20
68939;BMP180;59064;45.294;11.816;2022-10-31T02:42:41;101921.80;;;12.20
68939;BMP180;59064;45.294;11.816;2022-10-31T02:45:28;101920.60;;;12.20
68939;BMP180;59064;45.294;11.816;2022-10-31T02:47:59;101918.20;;;12.10
68939;BMP180;59064;45.294;11.816;2022-10-31T02:50:32;101920.80;;;12.10
68939;BMP180;59064;45.294;11.816;2022-10-31T02:53:00;101919.20;;;12.06
68939;BMP180;59064;45.294;11.816;2022-10-31T02:58:29;101918.60;;;12.10
68939;BMP180;59064;45.294;11.816;2022-10-31T03:01:24;101917.80;;;12.08
68939;BMP180;59064;45.294;11.816;2022-10-31T03:04:00;101920.40;;;12.00
68939;BMP180;59064;45.294;11.816;2022-10-31T03:09:34;101916.00;;;12.06
68939;BMP180;59064;45.294;11.816;2022-10-31T03:12:19;101919.80;;;12.10
68939;BMP180;59064;45.294;11.816;2022-10-31T03:15:05;101924.60;;;12.20
68939;BMP180;59064;45.294;11.816;2022-10-31T03:17:37;101924.40;;;12.20
68939;BMP180;59064;45.294;11.816;2022-10-31T03:20:06;101924.40;;;12.20
68939;BMP180;59064;45.294;11.816;2022-10-31T03:22:35;101922.00;;;12.18
68939;BMP180;59064;45.294;11.816;2022-10-31T03:25:02;101928.00;;;12.12
68939;BMP180;59064;45.294;11.816;2022-10-31T03:27:31;101925.40;;;12.10
68939;BMP180;59064;45.294;11.816;2022-10-31T03:30:01;101925.60;;;12.10
68939;BMP180;59064;45.294;11.816;2022-10-31T03:32:31;101923.80;;;12.08
68939;BMP180;59064;45.294;11.816;2022-10-31T03:34:59;101929.00;;;12.00
68939;BMP180;59064;45.294;11.816;2022-10-31T03:37:27;101930.60;;;11.90
68939;BMP180;59064;45.294;11.816;2022-10-31T03:39:55;101927.40;;;11.80
68939;BMP180;59064;45.294;11.816;2022-10-31T03:42:24;101928.60;;;11.80
68939;BMP180;59064;45.294;11.816;2022-10-31T03:44:55;101928.20;;;11.80
68939;BMP180;59064;45.294;11.816;2022-10-31T03:47:21;101932.20;;;11.80
68939;BMP180;59064;45.294;11.816;2022-10-31T03:49:47;101933.20;;;11.76
68939;BMP180;59064;45.294;11.816;2022-10-31T03:54:46;101938.60;;;11.70
68939;BMP180;59064;45.294;11.816;2022-10-31T03:57:43;101937.20;;;11.70
68939;BMP180;59064;45.294;11.816;2022-10-31T04:00:15;101937.40;;;11.70
68939;BMP180;59064;45.294;11.816;2022-10-31T04:02:45;101938.00;;;11.60
68939;BMP180;59064;45.294;11.816;2022-10-31T04:05:15;101933.20;;;11.60
68939;BMP180;59064;45.294;11.816;2022-10-31T04:07:45;101937.20;;;11.60
68939;BMP180;59064;45.294;11.816;2022-10-31T04:10:13;101940.00;;;11.60
68939;BMP180;59064;45.294;11.816;2022-10-31T04:12:39;101941.00;;;11.60
68939;BMP180;59064;45.294;11.816;2022-10-31T04:15:07;101944.20;;;11.50
68939;BMP180;59064;45.294;11.816;2022-10-31T04:17:37;101945.80;;;11.50
68939;BMP180;59064;45.294;11.816;2022-10-31T04:20:05;101943.80;;;11.50
68939;BMP180;59064;45.294;11.816;2022-10-31T04:22:31;101942.40;;;11.40
68939;BMP180;59064;45.294;11.816;2022-10-31T04:24:56;101941.80;;;11.40
68939;BMP180;59064;45.294;11.816;2022-10-31T04:27:22;101939.00;;;11.30
68939;BMP180;59064;45.294;11.816;2022-10-31T04:29:48;101934.80;;;11.28
68939;BMP180;59064;45.294;11.816;2022-10-31T04:32:13;101937.00;;;11.20
68939;BMP180;59064;45.294;11.816;2022-10-31T04:34:39;101942.20;;;11.20
68939;BMP180;59064;45.294;11.816;2022-10-31T04:37:04;101942.20;;;11.26
68939;BMP180;59064;45.294;11.816;2022-10-31T04:39:30;101941.20;;;11.30
68939;BMP180;59064;45.294;11.816;2022-10-31T04:41:55;101942.00;;;11.30
68939;BMP180;59064;45.294;11.816;2022-10-31T04:44:21;101938.80;;;11.32
68939;BMP180;59064;45.294;11.816;2022-10-31T04:46:46;101939.60;;;11.36
68939;BMP180;59064;45.294;11.816;2022-10-31T04:49:12;101939.40;;;11.40
68939;BMP180;59064;45.294;11.816;2022-10-31T04:51:37;101939.40;;;11.40
68939;BMP180;59064;45.294;11.816;2022-10-31T04:54:03;101943.00;;;11.40
68939;BMP180;59064;45.294;11.816;2022-10-31T04:56:28;101943.60;;;11.32
68939;BMP180;59064;45.294;11.816;2022-10-31T04:58:54;101941.80;;;11.30
68939;BMP180;59064;45.294;11.816;2022-10-31T05:01:19;101947.40;;;11.30
68939;BMP180;59064;45.294;11.816;2022-10-31T05:03:45;101941.60;;;11.20
68939;BMP180;59064;45.294;11.816;2022-10-31T05:06:10;101937.60;;;11.20
68939;BMP180;59064;45.294;11.816;2022-10-31T05:08:36;101938.00;;;11.10
68939;BMP180;59064;45.294;11.816;2022-10-31T05:11:05;101940.40;;;11.10
68939;BMP180;59064;45.294;11.816;2022-10-31T05:13:31;101937.80;;;11.02
68939;BMP180;59064;45.294;11.816;2022-10-31T05:15:56;101939.60;;;11.00
68939;BMP180;59064;45.294;11.816;2022-10-31T05:18:22;101942.20;;;11.00
68939;BMP180;59064;45.294;11.816;2022-10-31T05:20:48;101946.20;;;11.00
68939;BMP180;59064;45.294;11.816;2022-10-31T05:23:14;101947.00;;;10.90
68939;BMP180;59064;45.294;11.816;2022-10-31T05:25:40;101947.80;;;10.90
68939;BMP180;59064;45.294;11.816;2022-10-31T05:28:06;101946.60;;;10.90
68939;BMP180;59064;45.294;11.816;2022-10-31T05:30:32;101949.60;;;10.90
68939;BMP180;59064;45.294;11.816;2022-10-31T05:32:59;101951.20;;;10.82
68939;BMP180;59064;45.294;11.816;2022-10-31T05:35:31;101948.60;;;10.80
68939;BMP180;59064;45.294;11.816;2022-10-31T05:37:57;101950.60;;;10.80
68939;BMP180;59064;45.294;11.816;2022-10-31T05:40:26;101948.40;;;10.80
68939;BMP180;59064;45.294;11.816;2022-10-31T05:42:53;101949.80;;;10.80
68939;BMP180;59064;45.294;11.816;2022-10-31T05:45:20;101953.00;;;10.80
68939;BMP180;59064;45.294;11.816;2022-10-31T05:48:00;101954.20;;;10.80
68939;BMP180;59064;45.294;11.816;2022-10-31T05:50:28;101950.60;;;10.80
68939;BMP180;59064;45.294;11.816;2022-10-31T05:52:59;101950.40;;;10.80
68939;BMP180;59064;45.294;11.816;2022-10-31T05:55:25;101955.20;;;10.80
68939;BMP180;59064;45.294;11.816;2022-10-31T05:57:52;101954.80;;;10.80
68939;BMP180;59064;45.294;11.816;2022-10-31T06:00:19;101957.80;;;10.80
68939;BMP180;59064;45.294;11.816;2022-10-31T06:02:44;101960.20;;;10.88
68939;BMP180;59064;45.294;11.816;2022-10-31T06:05:10;101956.40;;;10.90
68939;BMP180;59064;45.294;11.816;2022-10-31T06:07:35;101955.00;;;10.90
68939;BMP180;59064;45.294;11.816;2022-10-31T06:10:04;101958.80;;;10.90
68939;BMP180;59064;45.294;11.816;2022-10-31T06:12:30;101957.00;;;10.92
68939;BMP180;59064;45.294;11.816;2022-10-31T06:14:56;101957.60;;;11.00
68939;BMP180;59064;45.294;11.816;2022-10-31T06:17:22;101960.80;;;11.00
68939;BMP180;59064;45.294;11.816;2022-10-31T06:19:48;101964.20;;;11.00
68939;BMP180;59064;45.294;11.816;2022-10-31T06:22:13;101966.20;;;11.00
68939;BMP180;59064;45.294;11.816;2022-10-31T06:24:39;101965.20;;;11.10
68939;BMP180;59064;45.294;11.816;2022-10-31T06:27:05;101962.60;;;11.20
68939;BMP180;59064;45.294;11.816;2022-10-31T06:29:30;101969.80;;;11.20
68939;BMP180;59064;45.294;11.816;2022-10-31T06:31:56;101973.00;;;11.30
68939;BMP180;59064;45.294;11.816;2022-10-31T06:34:21;101973.00;;;11.40
68939;BMP180;59064;45.294;11.816;2022-10-31T06:36:47;101980.20;;;11.50
68939;BMP180;59064;45.294;11.816;2022-10-31T06:39:13;101983.20;;;11.52
68939;BMP180;59064;45.294;11.816;2022-10-31T06:41:38;101982.20;;;11.60
68939;BMP180;59064;45.294;11.816;2022-10-31T06:44:06;101982.80;;;11.70
68939;BMP180;59064;45.294;11.816;2022-10-31T06:46:31;101979.40;;;11.80
68939;BMP180;59064;45.294;11.816;2022-10-31T06:48:57;101983.20;;;11.92
68939;BMP180;59064;45.294;11.816;2022-10-31T06:51:22;101987.40;;;12.10
68939;BMP180;59064;45.294;11.816;2022-10-31T06:53:48;101991.80;;;12.20
68939;BMP180;59064;45.294;11.816;2022-10-31T06:56:14;101992.00;;;12.32
68939;BMP180;59064;45.294;11.816;2022-10-31T06:58:39;101996.20;;;12.40
68939;BMP180;59064;45.294;11.816;2022-10-31T07:01:05;102002.20;;;12.50
68939;BMP180;59064;45.294;11.816;2022-10-31T07:03:30;102002.80;;;12.54
68939;BMP180;59064;45.294;11.816;2022-10-31T07:05:56;102008.60;;;12.60
68939;BMP180;59064;45.294;11.816;2022-10-31T07:08:23;102010.80;;;12.70
68939;BMP180;59064;45.294;11.816;2022-10-31T07:10:53;102015.40;;;12.70
68939;BMP180;59064;45.294;11.816;2022-10-31T07:13:20;102012.80;;;12.80
68939;BMP180;59064;45.294;11.816;2022-10-31T07:15:50;102018.00;;;12.90
68939;BMP180;59064;45.294;11.816;2022-10-31T07:18:15;102019.20;;;13.00
68939;BMP180;59064;45.294;11.816;2022-10-31T07:20:41;102024.00;;;13.10
68939;BMP180;59064;45.294;11.816;2022-10-31T07:23:08;102022.60;;;13.20
68939;BMP180;59064;45.294;11.816;2022-10-31T07:25:34;102021.20;;;13.40
68939;BMP180;59064;45.294;11.816;2022-10-31T07:27:59;102021.20;;;13.60
68939;BMP180;59064;45.294;11.816;2022-10-31T07:30:25;102022.60;;;13.82
68939;BMP180;59064;45.294;11.816;2022-10-31T07:32:50;102027.80;;;14.10
68939;BMP180;59064;45.294;11.816;2022-10-31T07:35:20;102032.60;;;14.32
68939;BMP180;59064;45.294;11.816;2022-10-31T07:37:56;102034.40;;;14.60
68939;BMP180;59064;45.294;11.816;2022-10-31T07:40:22;102030.40;;;14.82
68939;BMP180;59064;45.294;11.816;2022-10-31T07:42:50;102028.60;;;15.10
68939;BMP180;59064;45.294;11.816;2022-10-31T07:45:18;102031.60;;;15.30
68939;BMP180;59064;45.294;11.816;2022-10-31T07:50:13;102030.20;;;15.94
68939;BMP180;59064;45.294;11.816;2022-10-31T07:52:39;102034.20;;;16.12
68939;BMP180;59064;45.294;11.816;2022-10-31T07:55:05;102031.40;;;16.42
68939;BMP180;59064;45.294;11.816;2022-10-31T07:57:32;102038.20;;;16.74
68939;BMP180;59064;45.294;11.816;2022-10-31T07:59:57;102036.80;;;17.16
68939;BMP180;59064;45.294;11.816;2022-10-31T08:02:24;102040.20;;;17.46
68939;BMP180;59064;45.294;11.816;2022-10-31T08:04:50;102040.20;;;17.68
68939;BMP180;59064;45.294;11.816;2022-10-31T08:07:16;102042.60;;;18.02
68939;BMP180;59064;45.294;11.816;2022-10-31T08:09:42;102038.80;;;18.32
68939;BMP180;59064;45.294;11.816;2022-10-31T08:12:07;102039.00;;;18.52
68939;BMP180;59064;45.294;11.816;2022-10-31T08:14:33;102036.40;;;18.80
68939;BMP180;59064;45.294;11.816;2022-10-31T08:16:58;102036.80;;;19.10
68939;BMP180;59064;45.294;11.816;2022-10-31T08:19:24;102041.60;;;19.24
68939;BMP180;59064;45.294;11.816;2022-10-31T08:21:53;102038.80;;;19.36
68939;BMP180;59064;45.294;11.816;2022-10-31T08:24:21;102041.40;;;19.32
68939;BMP180;59064;45.294;11.816;2022-10-31T08:26:46;102041.20;;;19.38
68939;BMP180;59064;45.294;11.816;2022-10-31T08:29:12;102043.40;;;19.40
68939;BMP180;59064;45.294;11.816;2022-10-31T08:31:38;102041.20;;;19.52
68939;BMP180;59064;45.294;11.816;2022-10-31T08:34:04;102042.40;;;19.70
68939;BMP180;59064;45.294;11.816;2022-10-31T08:36:29;102044.60;;;20.00
68939;BMP180;59064;45.294;11.816;2022-10-31T08:38:55;102042.20;;;20.28
68939;BMP180;59064;45.294;11.816;2022-10-31T08:41:21;102045.60;;;20.62
68939;BMP180;59064;45.294;11.816;2022-10-31T08:43:47;102042.80;;;20.80
68939;BMP180;59064;45.294;11.816;2022-10-31T08:46:12;102046.00;;;21.00
68939;BMP180;59064;45.294;11.816;2022-10-31T08:48:38;102048.00;;;21.22
68939;BMP180;59064;45.294;11.816;2022-10-31T08:51:04;102052.20;;;21.50
68939;BMP180;59064;45.294;11.816;2022-10-31T08:53:29;102048.00;;;21.60
68939;BMP180;59064;45.294;11.816;2022-10-31T08:55:56;102051.00;;;21.80
68939;BMP180;59064;45.294;11.816;2022-10-31T08:58:23;102051.40;;;22.10
68939;BMP180;59064;45.294;11.816;2022-10-31T09:00:51;102054.80;;;22.12
68939;BMP180;59064;45.294;11.816;2022-10-31T09:03:18;102052.20;;;22.20
68939;BMP180;59064;45.294;11.816;2022-10-31T09:05:44;102057.20;;;22.36
68939;BMP180;59064;45.294;11.816;2022-10-31T09:08:11;102052.00;;;22.60
68939;BMP180;59064;45.294;11.816;2022-10-31T09:10:37;102052.40;;;22.86
68939;BMP180;59064;45.294;11.816;2022-10-31T09:13:12;102048.60;;;22.84
68939;BMP180;59064;45.294;11.816;2022-10-31T09:15:39;102047.60;;;22.96
68939;BMP180;59064;45.294;11.816;2022-10-31T09:18:06;102049.60;;;23.10
68939;BMP180;59064;45.294;11.816;2022-10-31T09:20:34;102053.00;;;23.30
68939;BMP180;59064;45.294;11.816;2022-10-31T09:23:17;102052.80;;;23.30
68939;BMP180;59064;45.294;11.816;2022-10-31T09:25:44;102048.00;;;23.40
68939;BMP180;59064;45.294;11.816;2022-10-31T09:28:12;102054.00;;;23.60
68939;BMP180;59064;45.294;11.816;2022-10-31T09:30:38;102053.40;;;23.78
68939;BMP180;59064;45.294;11.816;2022-10-31T09:33:11;102048.20;;;23.90
68939;BMP180;59064;45.294;11.816;2022-10-31T09:35:37;102051.80;;;23.80
68939;BMP180;59064;45.294;11.816;2022-10-31T09:38:10;102051.00;;;23.54
68939;BMP180;59064;45.294;11.816;2022-10-31T09:40:38;102053.60;;;23.50
68939;BMP180;59064;45.294;11.816;2022-10-31T09:43:14;102052.40;;;23.50
68939;BMP180;59064;45.294;11.816;2022-10-31T09:54:05;102054.40;;;23.50
68939;BMP180;59064;45.294;11.816;2022-10-31T09:56:31;102058.60;;;23.40
68939;BMP180;59064;45.294;11.816;2022-10-31T09:59:03;102059.80;;;23.50
68939;BMP180;59064;45.294;11.816;2022-10-31T10:01:45;102058.00;;;23.60
68939;BMP180;59064;45.294;11.816;2022-10-31T10:15:35;102052.60;;;23.40
68939;BMP180;59064;45.294;11.816;2022-10-31T10:21:23;102046.40;;;23.40
68939;BMP180;59064;45.294;11.816;2022-10-31T10:26:38;102044.40;;;23.60
68939;BMP180;59064;45.294;11.816;2022-10-31T10:31:53;102042.00;;;23.98
68939;BMP180;59064;45.294;11.816;2022-10-31T10:36:57;102045.80;;;24.60
68939;BMP180;59064;45.294;11.816;2022-10-31T10:39:40;102041.60;;;24.60
68939;BMP180;59064;45.294;11.816;2022-10-31T10:42:14;102037.40;;;24.66
68939;BMP180;59064;45.294;11.816;2022-10-31T10:45:00;102036.40;;;24.80
68939;BMP180;59064;45.294;11.816;2022-10-31T10:47:54;102035.00;;;24.88
68939;BMP180;59064;45.294;11.816;2022-10-31T10:50:29;102030.20;;;25.18
68939;BMP180;59064;45.294;11.816;2022-10-31T10:58:06;102033.00;;;25.94
68939;BMP180;59064;45.294;11.816;2022-10-31T11:03:07;102030.40;;;26.00
68939;BMP180;59064;45.294;11.816;2022-10-31T11:05:49;102027.60;;;26.10
68939;BMP180;59064;45.294;11.816;2022-10-31T11:08:25;102025.80;;;26.20
68939;BMP180;59064;45.294;11.816;2022-10-31T11:11:10;102027.00;;;26.62
68939;BMP180;59064;45.294;11.816;2022-10-31T11:13:41;102025.60;;;26.80
68939;BMP180;59064;45.294;11.816;2022-10-31T11:16:30;102022.60;;;26.80
68939;BMP180;59064;45.294;11.816;2022-10-31T11:19:09;102020.40;;;26.96
68939;BMP180;59064;45.294;11.816;2022-10-31T11:22:08;102016.60;;;27.18
68939;BMP180;59064;45.294;11.816;2022-10-31T11:27:45;102010.60;;;27.64
68939;BMP180;59064;45.294;11.816;2022-10-31T11:30:14;102010.60;;;27.94
68939;BMP180;59064;45.294;11.816;2022-10-31T11:32:47;102007.40;;;28.20
68939;BMP180;59064;45.294;11.816;2022-10-31T11:35:16;102008.80;;;28.40
68939;BMP180;59064;45.294;11.816;2022-10-31T11:37:45;102009.00;;;28.60
68939;BMP180;59064;45.294;11.816;2022-10-31T11:40:22;102002.60;;;28.70
68939;BMP180;59064;45.294;11.816;2022-10-31T11:42:51;101999.40;;;28.60
68939;BMP180;59064;45.294;11.816;2022-10-31T11:45:18;102001.00;;;28.42
68939;BMP180;59064;45.294;11.816;2022-10-31T11:47:47;101996.80;;;28.40
68939;BMP180;59064;45.294;11.816;2022-10-31T11:50:27;101996.00;;;28.48
68939;BMP180;59064;45.294;11.816;2022-10-31T11:52:54;101991.00;;;28.78
68939;BMP180;59064;45.294;11.816;2022-10-31T11:55:32;101984.00;;;29.00
68939;BMP180;59064;45.294;11.816;2022-10-31T11:57:59;101980.20;;;28.98
68939;BMP180;59064;45.294;11.816;2022-10-31T12:02:51;101972.20;;;28.70
68939;BMP180;59064;45.294;11.816;2022-10-31T12:05:26;101975.00;;;28.60
68939;BMP180;59064;45.294;11.816;2022-10-31T12:07:58;101973.40;;;28.68
68939;BMP180;59064;45.294;11.816;2022-10-31T12:10:30;101973.00;;;29.10
68939;BMP180;59064;45.294;11.816;2022-10-31T12:16:04;101968.80;;;30.04
68939;BMP180;59064;45.294;11.816;2022-10-31T12:18:50;101966.40;;;30.40
68939;BMP180;59064;45.294;11.816;2022-10-31T12:21:37;101961.60;;;30.70
68939;BMP180;59064;45.294;11.816;2022-10-31T12:24:14;101960.00;;;30.66
68939;BMP180;59064;45.294;11.816;2022-10-31T12:37:47;101955.00;;;30.32
68939;BMP180;59064;45.294;11.816;2022-10-31T12:43:29;101943.40;;;30.40
68939;BMP180;59064;45.294;11.816;2022-10-31T12:46:01;101949.00;;;30.70
68939;BMP180;59064;45.294;11.816;2022-10-31T12:51:28;101946.60;;;31.16
68939;BMP180;59064;45.294;11.816;2022-10-31T12:54:12;101948.40;;;31.20
68939;BMP180;59064;45.294;11.816;2022-10-31T12:59:28;101942.40;;;31.30
68939;BMP180;59064;45.294;11.816;2022-10-31T13:02:00;101940.60;;;31.70
68939;BMP180;59064;45.294;11.816;2022-10-31T13:04:36;101942.20;;;31.78
68939;BMP180;59064;45.294;11.816;2022-10-31T13:07:08;101942.40;;;31.50
68939;BMP180;59064;45.294;11.816;2022-10-31T13:10:07;101937.60;;;31.12
68939;BMP180;59064;45.294;11.816;2022-10-31T13:12:39;101940.60;;;31.10
68939;BMP180;59064;45.294;11.816;2022-10-31T13:15:18;101937.80;;;31.04
68939;BMP180;59064;45.294;11.816;2022-10-31T13:17:59;101936.20;;;30.90
68939;BMP180;59064;45.294;11.816;2022-10-31T13:20:37;101934.80;;;30.44
68939;BMP180;59064;45.294;11.816;2022-10-31T13:23:32;101931.20;;;30.30
68939;BMP180;59064;45.294;11.816;2022-10-31T13:26:01;101932.60;;;30.46
68939;BMP180;59064;45.294;11.816;2022-10-31T13:28:48;101933.20;;;30.50
68939;BMP180;59064;45.294;11.816;2022-10-31T13:31:16;101929.40;;;30.40
68939;BMP180;59064;45.294;11.816;2022-10-31T13:33:49;101926.40;;;30.22
68939;BMP180;59064;45.294;11.816;2022-10-31T13:36:34;101927.80;;;29.66
68939;BMP180;59064;45.294;11.816;2022-10-31T13:39:26;101925.60;;;29.10
68939;BMP180;59064;45.294;11.816;2022-10-31T13:41:52;101924.20;;;28.70
68939;BMP180;59064;45.294;11.816;2022-10-31T13:44:24;101918.40;;;28.60
68939;BMP180;59064;45.294;11.816;2022-10-31T13:46:55;101919.00;;;28.60
68939;BMP180;59064;45.294;11.816;2022-10-31T13:54:38;101911.80;;;28.60
68939;BMP180;59064;45.294;11.816;2022-10-31T13:57:16;101912.00;;;28.76
68939;BMP180;59064;45.294;11.816;2022-10-31T13:59:49;101910.00;;;28.94
68939;BMP180;59064;45.294;11.816;2022-10-31T14:02:17;101910.00;;;29.32
68939;BMP180;59064;45.294;11.816;2022-10-31T14:04:55;101914.20;;;29.50
68939;BMP180;59064;45.294;11.816;2022-10-31T14:07:22;101912.80;;;29.70
68939;BMP180;59064;45.294;11.816;2022-10-31T14:12:29;101910.80;;;30.18
68939;BMP180;59064;45.294;11.816;2022-10-31T14:15:02;101908.60;;;30.40
68939;BMP180;59064;45.294;11.816;2022-10-31T14:17:38;101906.60;;;30.10
68939;BMP180;59064;45.294;11.816;2022-10-31T14:22:39;101898.20;;;29.50
68939;BMP180;59064;45.294;11.816;2022-10-31T14:25:43;101895.40;;;29.34
68939;BMP180;59064;45.294;11.816;2022-10-31T14:28:21;101896.60;;;29.50
68939;BMP180;59064;45.294;11.816;2022-10-31T14:30:55;101893.20;;;29.62
68939;BMP180;59064;45.294;11.816;2022-10-31T14:33:23;101897.80;;;29.90
68939;BMP180;59064;45.294;11.816;2022-10-31T14:43:36;101897.80;;;29.62
68939;BMP180;59064;45.294;11.816;2022-10-31T14:46:16;101900.00;;;29.50
68939;BMP180;59064;45.294;11.816;2022-10-31T14:48:48;101901.60;;;29.50
68939;BMP180;59064;45.294;11.816;2022-10-31T14:51:21;101904.00;;;29.50
68939;BMP180;59064;45.294;11.816;2022-10-31T14:53:49;101900.40;;;29.48
68939;BMP180;59064;45.294;11.816;2022-10-31T14:56:24;101902.40;;;29.20
68939;BMP180;59064;45.294;11.816;2022-10-31T14:58:50;101899.00;;;29.08
68939;BMP180;59064;45.294;11.816;2022-10-31T15:01:28;101897.40;;;28.98
68939;BMP180;59064;45.294;11.816;2022-10-31T15:04:04;101899.40;;;28.84
68939;BMP180;59064;45.294;11.816;2022-10-31T15:06:38;101894.20;;;28.56
68939;BMP180;59064;45.294;11.816;2022-10-31T15:09:05;101892.20;;;28.28
68939;BMP180;59064;45.294;11.816;2022-10-31T15:11:37;101889.00;;;27.90
68939;BMP180;59064;45.294;11.816;2022-10-31T15:14:21;101886.80;;;27.50
68939;BMP180;59064;45.294;11.816;2022-10-31T15:16:46;101890.60;;;27.12
68939;BMP180;59064;45.294;11.816;2022-10-31T15:19:16;101892.80;;;26.74
68939;BMP180;59064;45.294;11.816;2022-10-31T15:21:44;101892.80;;;26.50
68939;BMP180;59064;45.294;11.816;2022-10-31T15:24:16;101897.20;;;26.20
68939;BMP180;59064;45.294;11.816;2022-10-31T15:26:54;101897.40;;;26.00
68939;BMP180;59064;45.294;11.816;2022-10-31T15:29:25;101897.20;;;25.80
68939;BMP180;59064;45.294;11.816;2022-10-31T15:32:36;101901.20;;;25.66
68939;BMP180;59064;45.294;11.816;2022-10-31T15:35:09;101896.80;;;25.50
68939;BMP180;59064;45.294;11.816;2022-10-31T15:37:35;101897.60;;;25.30
68939;BMP180;59064;45.294;11.816;2022-10-31T15:40:07;101896.20;;;25.20
68939;BMP180;59064;45.294;11.816;2022-10-31T15:42:40;101899.80;;;25.04
68939;BMP180;59064;45.294;11.816;2022-10-31T15:45:18;101893.60;;;24.80
68939;BMP180;59064;45.294;11.816;2022-10-31T15:48:01;101892.40;;;24.60
68939;BMP180;59064;45.294;11.816;2022-10-31T15:52:53;101890.00;;;24.20
68939;BMP180;59064;45.294;11.816;2022-10-31T15:55:25;101887.00;;;23.90